sensor_id;sensor_type;location;lat;lon;timestamp;pressure;altitude;pressure_sealevel;temperature;humidity
68456;BME280;55437;55.046;38.838;2023-09-19T00:01:42;100542.50;;;10.47;77.04
68456;BME280;55437;55.046;38.838;2023-09-19T00:04:14;100544.25;;;10.45;77.08
68456;BME280;55437;55.046;38.838;2023-09-19T00:06:40;100545.06;;;10.47;77.74
68456;BME280;55437;55.046;38.838;2023-09-19T00:09:06;100549.22;;;10.53;77.61
68456;BME280;55437;55.046;38.838;2023-09-19T00:11:37;100542.31;;;10.56;77.63
68456;BME280;55437;55.046;38.838;2023-09-19T00:14:04;100540.44;;;10.63;77.67
68456;BME280;55437;55.046;38.838;2023-09-19T00:16:34;100536.03;;;10.69;77.62
68456;BME280;55437;55.046;38.838;2023-09-19T00:19:01;100542.88;;;10.70;77.58
68456;BME280;55437;55.046;38.838;2023-09-19T00:21:33;100542.97;;;10.64;78.09
68456;BME280;55437;55.046;38.838;2023-09-19T00:23:59;100541.34;;;10.62;78.32
68456;BME280;55437;55.046;38.838;2023-09-19T00:26:25;100542.97;;;10.66;78.68
68456;BME280;55437;55.046;38.838;2023-09-19T00:28:54;100548.88;;;10.69;79.21
68456;BME280;55437;55.046;38.838;2023-09-19T00:31:21;100546.16;;;10.75;79.08
68456;BME280;55437;55.046;38.838;2023-09-19T00:33:51;100540.97;;;10.78;79.21
68456;BME280;55437;55.046;38.838;2023-09-19T00:36:17;100540.84;;;10.85;79.15
68456;BME280;55437;55.046;38.838;2023-09-19T00:38:44;100539.97;;;10.86;78.98
68456;BME280;55437;55.046;38.838;2023-09-19T00:41:11;100548.59;;;10.83;79.21
68456;BME280;55437;55.046;38.838;2023-09-19T00:43:38;100540.25;;;10.73;79.13
68456;BME280;55437;55.046;38.838;2023-09-19T00:46:06;100536.97;;;10.65;79.01
68456;BME280;55437;55.046;38.838;2023-09-19T00:48:33;100545.63;;;10.61;79.01
68456;BME280;55437;55.046;38.838;2023-09-19T00:51:04;100541.50;;;10.53;79.20
68456;BME280;55437;55.046;38.838;2023-09-19T00:53:30;100540.00;;;10.44;79.05
68456;BME280;55437;55.046;38.838;2023-09-19T00:55:56;100541.75;;;10.42;79.50
68456;BME280;55437;55.046;38.838;2023-09-19T00:58:22;100535.66;;;10.48;79.51
68456;BME280;55437;55.046;38.838;2023-09-19T01:00:49;100545.03;;;10.50;79.70
68456;BME280;55437;55.046;38.838;2023-09-19T01:03:15;100538.13;;;10.51;79.48
68456;BME280;55437;55.046;38.838;2023-09-19T01:05:41;100544.06;;;10.54;79.91
68456;BME280;55437;55.046;38.838;2023-09-19T01:08:08;100541.47;;;10.56;80.27
68456;BME280;55437;55.046;38.838;2023-09-19T01:10:35;100544.03;;;10.56;80.42
68456;BME280;55437;55.046;38.838;2023-09-19T01:13:17;100542.34;;;10.55;80.62
68456;BME280;55437;55.046;38.838;2023-09-19T01:16:15;100536.28;;;10.59;81.13
68456;BME280;55437;55.046;38.838;2023-09-19T01:18:52;100542.19;;;10.62;80.24
68456;BME280;55437;55.046;38.838;2023-09-19T01:30:32;100545.44;;;10.70;80.65
68456;BME280;55437;55.046;38.838;2023-09-19T01:32:59;100537.72;;;10.70;80.67
68456;BME280;55437;55.046;38.838;2023-09-19T01:35:25;100536.84;;;10.73;80.56
68456;BME280;55437;55.046;38.838;2023-09-19T01:37:51;100530.09;;;10.67;80.63
68456;BME280;55437;55.046;38.838;2023-09-19T01:40:20;100536.25;;;10.60;80.53
68456;BME280;55437;55.046;38.838;2023-09-19T01:45:36;100544.16;;;10.50;80.92
68456;BME280;55437;55.046;38.838;2023-09-19T01:51:01;100544.19;;;10.48;81.13
68456;BME280;55437;55.046;38.838;2023-09-19T01:53:33;100535.38;;;10.61;80.72
68456;BME280;55437;55.046;38.838;2023-09-19T01:56:01;100531.09;;;10.60;80.75
68456;BME280;55437;55.046;38.838;2023-09-19T01:58:52;100537.09;;;10.61;80.83
68456;BME280;55437;55.046;38.838;2023-09-19T02:01:22;100537.06;;;10.62;80.54
68456;BME280;55437;55.046;38.838;2023-09-19T02:03:49;100538.66;;;10.66;80.47
68456;BME280;55437;55.046;38.838;2023-09-19T02:06:16;100540.44;;;10.63;80.16
68456;BME280;55437;55.046;38.838;2023-09-19T02:08:43;100542.28;;;10.58;80.51
68456;BME280;55437;55.046;38.838;2023-09-19T02:11:13;100536.97;;;10.65;80.35
68456;BME280;55437;55.046;38.838;2023-09-19T02:13:41;100544.56;;;10.71;80.17
68456;BME280;55437;55.046;38.838;2023-09-19T02:16:09;100548.81;;;10.72;80.04
68456;BME280;55437;55.046;38.838;2023-09-19T02:18:36;100547.19;;;10.68;79.94
68456;BME280;55437;55.046;38.838;2023-09-19T02:21:03;100542.00;;;10.71;79.74
68456;BME280;55437;55.046;38.838;2023-09-19T02:23:30;100530.00;;;10.72;79.62
68456;BME280;55437;55.046;38.838;2023-09-19T02:25:59;100541.94;;;10.74;79.40
68456;BME280;55437;55.046;38.838;2023-09-19T02:28:29;100547.13;;;10.71;79.27
68456;BME280;55437;55.046;38.838;2023-09-19T02:30:58;100540.41;;;10.64;79.28
68456;BME280;55437;55.046;38.838;2023-09-19T02:33:24;100542.31;;;10.56;79.34
68456;BME280;55437;55.046;38.838;2023-09-19T02:35:56;100530.53;;;10.46;79.46
68456;BME280;55437;55.046;38.838;2023-09-19T02:38:25;100527.97;;;10.46;80.01
68456;BME280;55437;55.046;38.838;2023-09-19T02:40:52;100526.38;;;10.39;79.69
68456;BME280;55437;55.046;38.838;2023-09-19T02:43:18;100533.44;;;10.29;79.92
68456;BME280;55437;55.046;38.838;2023-09-19T02:45:49;100539.63;;;10.19;80.61
68456;BME280;55437;55.046;38.838;2023-09-19T02:48:23;100542.94;;;10.26;80.50
68456;BME280;55437;55.046;38.838;2023-09-19T02:50:51;100533.44;;;10.29;80.25
68456;BME280;55437;55.046;38.838;2023-09-19T02:53:18;100528.28;;;10.31;79.95
68456;BME280;55437;55.046;38.838;2023-09-19T02:55:45;100528.25;;;10.32;80.03
68456;BME280;55437;55.046;38.838;2023-09-19T02:58:12;100529.97;;;10.32;80.33
68456;BME280;55437;55.046;38.838;2023-09-19T03:00:40;100534.47;;;10.21;80.37
68456;BME280;55437;55.046;38.838;2023-09-19T03:03:08;100535.38;;;10.18;80.33
68456;BME280;55437;55.046;38.838;2023-09-19T03:05:34;100539.59;;;10.21;81.01
68456;BME280;55437;55.046;38.838;2023-09-19T03:08:01;100531.72;;;10.30;80.48
68456;BME280;55437;55.046;38.838;2023-09-19T03:10:27;100535.69;;;10.46;80.45
68456;BME280;55437;55.046;38.838;2023-09-19T03:12:55;100534.81;;;10.47;80.08
68456;BME280;55437;55.046;38.838;2023-09-19T03:15:22;100535.69;;;10.46;79.95
68456;BME280;55437;55.046;38.838;2023-09-19T03:17:50;100541.59;;;10.50;80.11
68456;BME280;55437;55.046;38.838;2023-09-19T03:20:20;100545.03;;;10.49;80.15
68456;BME280;55437;55.046;38.838;2023-09-19T03:22:48;100538.22;;;10.48;80.07
68456;BME280;55437;55.046;38.838;2023-09-19T03:25:16;100546.06;;;10.40;80.12
68456;BME280;55437;55.046;38.838;2023-09-19T03:27:44;100541.00;;;10.37;80.32
68456;BME280;55437;55.046;38.838;2023-09-19T03:30:12;100545.94;;;10.46;80.30
68456;BME280;55437;55.046;38.838;2023-09-19T03:32:45;100541.50;;;10.53;79.91
68456;BME280;55437;55.046;38.838;2023-09-19T03:35:30;100544.09;;;10.53;79.96
68456;BME280;55437;55.046;38.838;2023-09-19T03:37:56;100539.13;;;10.45;80.13
68456;BME280;55437;55.046;38.838;2023-09-19T03:40:24;100539.06;;;10.48;80.15
68456;BME280;55437;55.046;38.838;2023-09-19T03:42:51;100538.19;;;10.49;79.98
68456;BME280;55437;55.046;38.838;2023-09-19T03:45:17;100528.97;;;10.39;80.35
68456;BME280;55437;55.046;38.838;2023-09-19T03:47:47;100535.78;;;10.40;80.43
68456;BME280;55437;55.046;38.838;2023-09-19T03:50:16;100534.31;;;10.28;80.77
68456;BME280;55437;55.046;38.838;2023-09-19T03:52:44;100529.88;;;10.36;80.81
68456;BME280;55437;55.046;38.838;2023-09-19T03:55:10;100529.63;;;10.49;80.75
68456;BME280;55437;55.046;38.838;2023-09-19T03:57:38;100525.09;;;10.61;80.63
68456;BME280;55437;55.046;38.838;2023-09-19T04:00:04;100520.94;;;10.54;80.37
68456;BME280;55437;55.046;38.838;2023-09-19T04:02:39;100520.38;;;10.40;80.59
68456;BME280;55437;55.046;38.838;2023-09-19T04:05:07;100512.00;;;10.32;81.22
68456;BME280;55437;55.046;38.838;2023-09-19T04:07:34;100515.56;;;10.26;81.14
68456;BME280;55437;55.046;38.838;2023-09-19T04:10:00;100516.31;;;10.30;81.17
68456;BME280;55437;55.046;38.838;2023-09-19T04:12:31;100511.84;;;10.39;80.80
68456;BME280;55437;55.046;38.838;2023-09-19T04:14:58;100516.03;;;10.43;81.11
68456;BME280;55437;55.046;38.838;2023-09-19T04:17:24;100513.28;;;10.53;80.49
68456;BME280;55437;55.046;38.838;2023-09-19T04:19:50;100520.09;;;10.54;80.76
68456;BME280;55437;55.046;38.838;2023-09-19T04:22:16;100515.84;;;10.53;80.96
68456;BME280;55437;55.046;38.838;2023-09-19T04:24:42;100519.16;;;10.59;80.73
68456;BME280;55437;55.046;38.838;2023-09-19T04:27:08;100518.13;;;10.66;81.10
68456;BME280;55437;55.046;38.838;2023-09-19T04:29:35;100520.28;;;10.86;80.80
68456;BME280;55437;55.046;38.838;2023-09-19T04:32:01;100514.00;;;10.98;80.67
68456;BME280;55437;55.046;38.838;2023-09-19T04:34:30;100516.25;;;11.11;80.27
68456;BME280;55437;55.046;38.838;2023-09-19T04:36:56;100527.97;;;11.23;80.23
68456;BME280;55437;55.046;38.838;2023-09-19T04:39:24;100532.75;;;11.38;79.87
68456;BME280;55437;55.046;38.838;2023-09-19T04:41:53;100533.22;;;11.54;79.38
68456;BME280;55437;55.046;38.838;2023-09-19T04:44:18;100542.34;;;11.67;78.81
68456;BME280;55437;55.046;38.838;2023-09-19T04:46:44;100534.53;;;11.70;78.98
68456;BME280;55437;55.046;38.838;2023-09-19T04:49:13;100535.16;;;11.81;78.91
68456;BME280;55437;55.046;38.838;2023-09-19T04:51:39;100535.19;;;11.80;78.85
68456;BME280;55437;55.046;38.838;2023-09-19T04:54:06;100539.47;;;11.79;78.59
68456;BME280;55437;55.046;38.838;2023-09-19T04:56:32;100536.06;;;11.79;78.68
68456;BME280;55437;55.046;38.838;2023-09-19T04:58:59;100537.81;;;11.77;78.85
68456;BME280;55437;55.046;38.838;2023-09-19T05:01:26;100531.84;;;11.75;79.02
68456;BME280;55437;55.046;38.838;2023-09-19T05:03:52;100534.13;;;11.87;78.81
68456;BME280;55437;55.046;38.838;2023-09-19T05:06:20;100530.59;;;11.91;78.85
68456;BME280;55437;55.046;38.838;2023-09-19T05:08:49;100525.44;;;11.91;78.53
68456;BME280;55437;55.046;38.838;2023-09-19T05:11:18;100523.84;;;11.87;79.25
68456;BME280;55437;55.046;38.838;2023-09-19T05:13:45;100521.09;;;11.93;79.18
68456;BME280;55437;55.046;38.838;2023-09-19T05:16:11;100520.13;;;11.97;79.04
68456;BME280;55437;55.046;38.838;2023-09-19T05:18:36;100520.00;;;12.02;78.81
68456;BME280;55437;55.046;38.838;2023-09-19T05:21:02;100522.81;;;11.94;79.06
68456;BME280;55437;55.046;38.838;2023-09-19T05:23:28;100526.13;;;11.98;79.30
68456;BME280;55437;55.046;38.838;2023-09-19T05:25:54;100517.25;;;12.08;78.97
68456;BME280;55437;55.046;38.838;2023-09-19T05:28:22;100519.22;;;12.31;78.99
68456;BME280;55437;55.046;38.838;2023-09-19T05:30:49;100525.41;;;12.54;78.35
68456;BME280;55437;55.046;38.838;2023-09-19T05:33:15;100524.25;;;12.65;77.83
68456;BME280;55437;55.046;38.838;2023-09-19T05:35:41;100517.69;;;12.82;77.60
68456;BME280;55437;55.046;38.838;2023-09-19T05:38:07;100517.94;;;13.03;77.30
68456;BME280;55437;55.046;38.838;2023-09-19T05:40:38;100524.13;;;13.25;76.94
68456;BME280;55437;55.046;38.838;2023-09-19T05:43:08;100518.31;;;13.45;76.09
68456;BME280;55437;55.046;38.838;2023-09-19T05:45:34;100521.16;;;13.63;75.69
68456;BME280;55437;55.046;38.838;2023-09-19T05:48:09;100519.09;;;13.73;75.59
68456;BME280;55437;55.046;38.838;2023-09-19T05:50:37;100520.09;;;13.94;75.20
68456;BME280;55437;55.046;38.838;2023-09-19T05:53:04;100515.19;;;14.11;74.90
68456;BME280;55437;55.046;38.838;2023-09-19T05:55:31;100520.00;;;14.20;74.23
68456;BME280;55437;55.046;38.838;2023-09-19T05:57:57;100516.47;;;14.23;73.99
68456;BME280;55437;55.046;38.838;2023-09-19T06:00:24;100514.91;;;14.19;74.03
68456;BME280;55437;55.046;38.838;2023-09-19T06:02:54;100508.88;;;14.18;74.01
68456;BME280;55437;55.046;38.838;2023-09-19T06:05:20;100513.84;;;14.24;73.91
68456;BME280;55437;55.046;38.838;2023-09-19T06:07:46;100519.50;;;14.34;73.75
68456;BME280;55437;55.046;38.838;2023-09-19T06:10:13;100514.41;;;14.32;73.67
68456;BME280;55437;55.046;38.838;2023-09-19T06:12:43;100516.81;;;14.37;73.75
68456;BME280;55437;55.046;38.838;2023-09-19T06:15:11;100510.97;;;14.32;73.78
68456;BME280;55437;55.046;38.838;2023-09-19T06:17:53;100509.38;;;14.04;74.50
68456;BME280;55437;55.046;38.838;2023-09-19T06:20:24;100515.06;;;14.14;74.44
68456;BME280;55437;55.046;38.838;2023-09-19T06:22:51;100508.09;;;14.16;74.43
68456;BME280;55437;55.046;38.838;2023-09-19T06:25:17;100504.41;;;14.23;74.77
68456;BME280;55437;55.046;38.838;2023-09-19T06:27:49;100504.13;;;14.31;74.44
68456;BME280;55437;55.046;38.838;2023-09-19T06:30:21;100508.06;;;14.41;74.31
68456;BME280;55437;55.046;38.838;2023-09-19T06:32:49;100509.59;;;14.47;74.28
68456;BME280;55437;55.046;38.838;2023-09-19T06:35:22;100505.16;;;14.50;74.14
68456;BME280;55437;55.046;38.838;2023-09-19T06:37:48;100493.22;;;14.48;74.02
68456;BME280;55437;55.046;38.838;2023-09-19T06:40:15;100492.00;;;14.56;74.05
68456;BME280;55437;55.046;38.838;2023-09-19T06:42:45;100498.75;;;14.60;73.88
68456;BME280;55437;55.046;38.838;2023-09-19T06:45:13;100492.56;;;14.64;73.85
68456;BME280;55437;55.046;38.838;2023-09-19T06:47:48;100499.19;;;14.71;73.81
68456;BME280;55437;55.046;38.838;2023-09-19T06:50:18;100500.78;;;14.74;73.87
68456;BME280;55437;55.046;38.838;2023-09-19T06:52:45;100505.13;;;14.73;74.15
68456;BME280;55437;55.046;38.838;2023-09-19T06:55:16;100507.91;;;14.69;74.20
68456;BME280;55437;55.046;38.838;2023-09-19T06:57:43;100507.66;;;14.75;74.03
68456;BME280;55437;55.046;38.838;2023-09-19T07:00:10;100499.72;;;14.80;74.16
68456;BME280;55437;55.046;38.838;2023-09-19T07:02:58;100496.72;;;14.90;73.92
68456;BME280;55437;55.046;38.838;2023-09-19T07:05:47;100499.25;;;14.92;73.97
68456;BME280;55437;55.046;38.838;2023-09-19T07:08:13;100499.09;;;14.96;74.03
68456;BME280;55437;55.046;38.838;2023-09-19T07:10:44;100496.97;;;15.06;73.99
68456;BME280;55437;55.046;38.838;2023-09-19T07:13:15;100498.59;;;15.08;73.81
68456;BME280;55437;55.046;38.838;2023-09-19T07:15:44;100492.31;;;15.14;73.73
68456;BME280;55437;55.046;38.838;2023-09-19T07:18:14;100491.88;;;15.25;73.58
68456;BME280;55437;55.046;38.838;2023-09-19T07:20:43;100490.88;;;15.29;73.63
68456;BME280;55437;55.046;38.838;2023-09-19T07:23:18;100487.66;;;15.44;73.24
68456;BME280;55437;55.046;38.838;2023-09-19T07:25:45;100494.53;;;15.65;72.91
68456;BME280;55437;55.046;38.838;2023-09-19T07:28:12;100499.19;;;15.77;72.42
68456;BME280;55437;55.046;38.838;2023-09-19T07:30:38;100491.88;;;15.87;72.21
68456;BME280;55437;55.046;38.838;2023-09-19T07:33:05;100486.28;;;15.96;72.10
68456;BME280;55437;55.046;38.838;2023-09-19T07:35:32;100483.63;;;15.98;72.01
68456;BME280;55437;55.046;38.838;2023-09-19T07:37:58;100477.91;;;16.10;71.85
68456;BME280;55437;55.046;38.838;2023-09-19T07:40:28;100484.88;;;16.28;71.07
68456;BME280;55437;55.046;38.838;2023-09-19T07:43:12;100475.00;;;16.36;70.85
68456;BME280;55437;55.046;38.838;2023-09-19T07:45:38;100475.13;;;16.33;70.77
68456;BME280;55437;55.046;38.838;2023-09-19T07:48:05;100464.63;;;16.36;70.61
68456;BME280;55437;55.046;38.838;2023-09-19T07:50:34;100466.00;;;16.43;70.58
68456;BME280;55437;55.046;38.838;2023-09-19T07:53:03;100458.75;;;16.51;70.44
68456;BME280;55437;55.046;38.838;2023-09-19T07:55:34;100458.97;;;16.66;70.14
68456;BME280;55437;55.046;38.838;2023-09-19T07:58:00;100456.94;;;16.53;70.32
68456;BME280;55437;55.046;38.838;2023-09-19T08:00:32;100449.22;;;16.52;70.32
68456;BME280;55437;55.046;38.838;2023-09-19T08:03:01;100452.56;;;16.73;69.64
68456;BME280;55437;55.046;38.838;2023-09-19T08:05:27;100467.03;;;16.96;69.12
68456;BME280;55437;55.046;38.838;2023-09-19T08:07:53;100477.53;;;17.11;68.79
68456;BME280;55437;55.046;38.838;2023-09-19T08:10:19;100477.28;;;17.16;68.45
68456;BME280;55437;55.046;38.838;2023-09-19T08:12:47;100472.19;;;17.14;68.38
68456;BME280;55437;55.046;38.838;2023-09-19T08:15:18;100474.84;;;17.13;68.49
68456;BME280;55437;55.046;38.838;2023-09-19T08:17:48;100465.53;;;17.09;68.45
68456;BME280;55437;55.046;38.838;2023-09-19T08:20:21;100470.88;;;17.06;68.19
68456;BME280;55437;55.046;38.838;2023-09-19T08:22:52;100467.91;;;17.13;68.23
68456;BME280;55437;55.046;38.838;2023-09-19T08:25:21;100466.47;;;17.25;67.97
68456;BME280;55437;55.046;38.838;2023-09-19T08:27:49;100456.09;;;17.25;67.85
68456;BME280;55437;55.046;38.838;2023-09-19T08:30:16;100462.50;;;17.35;67.61
68456;BME280;55437;55.046;38.838;2023-09-19T08:32:43;100460.41;;;17.42;67.62
68456;BME280;55437;55.046;38.838;2023-09-19T08:35:15;100461.56;;;17.53;67.44
68456;BME280;55437;55.046;38.838;2023-09-19T08:37:44;100461.88;;;17.47;67.50
68456;BME280;55437;55.046;38.838;2023-09-19T08:40:13;100462.72;;;17.48;67.72
68456;BME280;55437;55.046;38.838;2023-09-19T08:42:52;100462.88;;;17.45;67.77
68456;BME280;55437;55.046;38.838;2023-09-19T08:45:21;100462.56;;;17.51;67.99
68456;BME280;55437;55.046;38.838;2023-09-19T08:56:17;100470.72;;;17.78;67.31
68456;BME280;55437;55.046;38.838;2023-09-19T08:58:47;100467.69;;;17.70;67.22
68456;BME280;55437;55.046;38.838;2023-09-19T09:01:19;100466.72;;;17.72;67.41
68456;BME280;55437;55.046;38.838;2023-09-19T09:03:55;100463.69;;;17.80;67.21
68456;BME280;55437;55.046;38.838;2023-09-19T09:06:23;100456.53;;;17.85;67.33
68456;BME280;55437;55.046;38.838;2023-09-19T09:08:53;100448.19;;;17.78;67.37
68456;BME280;55437;55.046;38.838;2023-09-19T09:11:19;100448.97;;;17.80;67.58
68456;BME280;55437;55.046;38.838;2023-09-19T09:13:46;100449.09;;;17.77;67.71
68456;BME280;55437;55.046;38.838;2023-09-19T09:16:14;100445.38;;;17.83;67.58
68456;BME280;55437;55.046;38.838;2023-09-19T09:18:45;100443.97;;;17.93;67.38
68456;BME280;55437;55.046;38.838;2023-09-19T09:21:12;100440.03;;;18.02;66.93
68456;BME280;55437;55.046;38.838;2023-09-19T09:23:41;100433.09;;;18.18;66.76
68456;BME280;55437;55.046;38.838;2023-09-19T09:26:07;100433.13;;;18.33;66.49
68456;BME280;55437;55.046;38.838;2023-09-19T09:28:35;100429.56;;;18.50;66.11
68456;BME280;55437;55.046;38.838;2023-09-19T09:31:22;100426.94;;;18.67;65.72
68456;BME280;55437;55.046;38.838;2023-09-19T09:33:53;100422.13;;;18.76;65.67
68456;BME280;55437;55.046;38.838;2023-09-19T09:36:39;100423.03;;;18.90;65.11
68456;BME280;55437;55.046;38.838;2023-09-19T09:39:07;100425.97;;;19.14;64.50
68456;BME280;55437;55.046;38.838;2023-09-19T09:41:51;100427.06;;;19.40;63.96
68456;BME280;55437;55.046;38.838;2023-09-19T09:44:29;100411.78;;;19.64;63.17
68456;BME280;55437;55.046;38.838;2023-09-19T09:47:02;100407.69;;;19.74;62.75
68456;BME280;55437;55.046;38.838;2023-09-19T09:49:50;100407.09;;;19.69;62.52
68456;BME280;55437;55.046;38.838;2023-09-19T09:52:20;100405.25;;;19.71;62.75
68456;BME280;55437;55.046;38.838;2023-09-19T09:55:03;100400.88;;;19.71;62.78
68456;BME280;55437;55.046;38.838;2023-09-19T09:57:40;100401.28;;;19.80;62.49
68456;BME280;55437;55.046;38.838;2023-09-19T10:00:35;100408.03;;;19.82;62.41
68456;BME280;55437;55.046;38.838;2023-09-19T10:03:19;100403.56;;;19.84;62.20
68456;BME280;55437;55.046;38.838;2023-09-19T10:06:10;100400.41;;;19.93;62.01
68456;BME280;55437;55.046;38.838;2023-09-19T10:09:07;100390.34;;;20.01;61.90
68456;BME280;55437;55.046;38.838;2023-09-19T10:11:47;100391.81;;;20.05;62.03
68456;BME280;55437;55.046;38.838;2023-09-19T10:14:17;100382.78;;;20.11;61.99
68456;BME280;55437;55.046;38.838;2023-09-19T10:16:49;100392.78;;;20.04;62.28
68456;BME280;55437;55.046;38.838;2023-09-19T10:19:21;100385.06;;;20.03;62.34
68456;BME280;55437;55.046;38.838;2023-09-19T10:21:56;100379.53;;;19.93;62.41
68456;BME280;55437;55.046;38.838;2023-09-19T10:24:28;100380.09;;;19.98;62.65
68456;BME280;55437;55.046;38.838;2023-09-19T10:26:59;100372.94;;;20.02;62.63
68456;BME280;55437;55.046;38.838;2023-09-19T10:29:52;100370.13;;;20.05;62.73
68456;BME280;55437;55.046;38.838;2023-09-19T10:32:30;100365.13;;;20.02;62.77
68456;BME280;55437;55.046;38.838;2023-09-19T10:34:59;100358.59;;;20.09;62.35
68456;BME280;55437;55.046;38.838;2023-09-19T10:37:27;100356.59;;;20.27;61.76
68456;BME280;55437;55.046;38.838;2023-09-19T10:39:56;100355.94;;;20.37;60.87
68456;BME280;55437;55.046;38.838;2023-09-19T10:42:28;100361.09;;;20.52;60.04
68456;BME280;55437;55.046;38.838;2023-09-19T10:45:22;100359.06;;;20.69;59.78
68456;BME280;55437;55.046;38.838;2023-09-19T10:47:58;100353.47;;;20.88;59.18
68456;BME280;55437;55.046;38.838;2023-09-19T10:50:32;100356.72;;;21.04;58.58
68456;BME280;55437;55.046;38.838;2023-09-19T10:53:04;100356.38;;;21.23;58.42
68456;BME280;55437;55.046;38.838;2023-09-19T10:55:59;100340.78;;;21.34;57.43
68456;BME280;55437;55.046;38.838;2023-09-19T10:58:39;100347.16;;;21.43;56.43
68456;BME280;55437;55.046;38.838;2023-09-19T11:01:08;100342.34;;;21.49;56.34
68456;BME280;55437;55.046;38.838;2023-09-19T11:04:54;100349.13;;;21.52;55.55
68456;BME280;55437;55.046;38.838;2023-09-19T11:07:14;100339.41;;;21.41;55.36
68456;BME280;55437;55.046;38.838;2023-09-19T11:09:59;100333.16;;;21.31;55.58
68456;BME280;55437;55.046;38.838;2023-09-19T11:16:04;100341.63;;;21.35;55.77
68456;BME280;55437;55.046;38.838;2023-09-19T11:21:51;100342.38;;;21.24;55.57
68456;BME280;55437;55.046;38.838;2023-09-19T11:27:09;100322.50;;;21.22;55.69
68456;BME280;55437;55.046;38.838;2023-09-19T11:29:38;100322.19;;;21.26;56.01
68456;BME280;55437;55.046;38.838;2023-09-19T11:32:05;100319.56;;;21.26;55.76
68456;BME280;55437;55.046;38.838;2023-09-19T11:34:39;100322.41;;;21.23;55.91
68456;BME280;55437;55.046;38.838;2023-09-19T11:40:09;100316.25;;;21.24;55.94
68456;BME280;55437;55.046;38.838;2023-09-19T11:42:52;100312.16;;;21.33;56.13
68456;BME280;55437;55.046;38.838;2023-09-19T11:48:20;100313.19;;;21.55;55.60
68456;BME280;55437;55.046;38.838;2023-09-19T11:50:52;100314.94;;;21.68;55.70
68456;BME280;55437;55.046;38.838;2023-09-19T11:53:21;100317.09;;;21.74;55.34
68456;BME280;55437;55.046;38.838;2023-09-19T11:55:49;100312.59;;;21.76;55.01
68456;BME280;55437;55.046;38.838;2023-09-19T11:58:21;100320.13;;;21.80;54.68
68456;BME280;55437;55.046;38.838;2023-09-19T12:01:08;100311.44;;;21.80;54.57
68456;BME280;55437;55.046;38.838;2023-09-19T12:03:47;100302.88;;;21.78;54.71
68456;BME280;55437;55.046;38.838;2023-09-19T12:06:37;100301.56;;;21.72;55.00
68456;BME280;55437;55.046;38.838;2023-09-19T12:09:16;100305.22;;;21.70;54.91
68456;BME280;55437;55.046;38.838;2023-09-19T12:11:46;100294.75;;;21.70;55.24
68456;BME280;55437;55.046;38.838;2023-09-19T12:14:22;100299.25;;;21.68;55.33
68456;BME280;55437;55.046;38.838;2023-09-19T12:17:03;100296.09;;;21.63;55.51
68456;BME280;55437;55.046;38.838;2023-09-19T12:19:38;100293.75;;;21.60;55.46
68456;BME280;55437;55.046;38.838;2023-09-19T12:22:13;100293.84;;;21.58;55.83
68456;BME280;55437;55.046;38.838;2023-09-19T12:24:47;100290.38;;;21.58;55.66
68456;BME280;55437;55.046;38.838;2023-09-19T12:27:26;100278.19;;;21.45;55.99
68456;BME280;55437;55.046;38.838;2023-09-19T12:29:55;100275.97;;;21.39;55.94
68456;BME280;55437;55.046;38.838;2023-09-19T12:32:35;100271.50;;;21.41;56.06
68456;BME280;55437;55.046;38.838;2023-09-19T12:35:07;100272.22;;;21.43;56.15
68456;BME280;55437;55.046;38.838;2023-09-19T12:37:43;100267.00;;;21.43;56.14
68456;BME280;55437;55.046;38.838;2023-09-19T12:40:14;100267.63;;;21.47;56.19
68456;BME280;55437;55.046;38.838;2023-09-19T12:42:49;100262.31;;;21.48;56.59
68456;BME280;55437;55.046;38.838;2023-09-19T12:45:16;100262.16;;;21.50;56.89
68456;BME280;55437;55.046;38.838;2023-09-19T12:48:20;100261.31;;;21.49;57.19
68456;BME280;55437;55.046;38.838;2023-09-19T12:51:04;100258.84;;;21.48;57.07
68456;BME280;55437;55.046;38.838;2023-09-19T12:53:41;100255.50;;;21.46;57.49
68456;BME280;55437;55.046;38.838;2023-09-19T12:56:10;100256.25;;;21.48;57.50
68456;BME280;55437;55.046;38.838;2023-09-19T12:58:53;100258.63;;;21.51;57.40
68456;BME280;55437;55.046;38.838;2023-09-19T13:01:24;100255.47;;;21.59;57.29
68456;BME280;55437;55.046;38.838;2023-09-19T13:06:49;100247.91;;;21.67;57.08
68456;BME280;55437;55.046;38.838;2023-09-19T13:09:22;100240.59;;;21.72;56.82
68456;BME280;55437;55.046;38.838;2023-09-19T13:12:01;100241.28;;;21.74;56.85
68456;BME280;55437;55.046;38.838;2023-09-19T13:14:32;100237.03;;;21.73;57.05
68456;BME280;55437;55.046;38.838;2023-09-19T13:17:08;100238.81;;;21.72;57.13
68456;BME280;55437;55.046;38.838;2023-09-19T13:19:46;100230.34;;;21.69;57.13
68456;BME280;55437;55.046;38.838;2023-09-19T13:22:36;100236.63;;;21.66;57.02
68456;BME280;55437;55.046;38.838;2023-09-19T13:25:16;100228.16;;;21.63;56.81
68456;BME280;55437;55.046;38.838;2023-09-19T13:27:53;100230.06;;;21.61;57.11
68456;BME280;55437;55.046;38.838;2023-09-19T13:30:30;100219.09;;;21.55;57.01
68456;BME280;55437;55.046;38.838;2023-09-19T13:33:12;100215.97;;;21.50;57.20
68456;BME280;55437;55.046;38.838;2023-09-19T13:35:48;100228.19;;;21.50;56.92
68456;BME280;55437;55.046;38.838;2023-09-19T13:38:14;100223.09;;;21.48;57.06
68456;BME280;55437;55.046;38.838;2023-09-19T13:40:41;100221.19;;;21.50;56.91
68456;BME280;55437;55.046;38.838;2023-09-19T13:43:12;100215.97;;;21.50;56.86